Time;durP1;ratioP1;P1;durP2;ratioP2;P2;SDS_P1;SDS_P2;PMS_P1;PMS_P2;Temp;Humidity;BMP_temperature;BMP_pressure;BME280_temperature;BME280_humidity;BME280_pressure;Samples;Min_cycle;Max_cycle;Signal;HPM_P1;HPM_P2
2022/03/29 00:01:59;;;;;;;19.65;11.80;;;10.50;90.40;;;;;;5004515;28;20535;-65
2022/03/29 00:04:27;;;;;;;20.67;12.02;;;10.50;90.60;;;;;;4992049;28;20046;-65
2022/03/29 00:06:55;;;;;;;21.15;11.75;;;10.40;90.80;;;;;;4991820;28;20038;-66
2022/03/29 00:09:22;;;;;;;19.58;11.43;;;10.30;91.00;;;;;;4998553;28;20122;-66
2022/03/29 00:11:50;;;;;;;20.77;12.50;;;10.30;91.20;;;;;;5004081;28;20388;-67
2022/03/29 00:14:17;;;;;;;25.02;12.40;;;10.30;91.50;;;;;;5005811;28;20752;-67
2022/03/29 00:16:44;;;;;;;18.17;11.48;;;10.20;91.60;;;;;;4997768;28;20489;-67
2022/03/29 00:19:12;;;;;;;22.23;12.90;;;10.20;91.80;;;;;;5002725;28;20077;-66
2022/03/29 00:21:39;;;;;;;20.27;11.70;;;10.20;92.00;;;;;;4999294;28;20068;-66
2022/03/29 00:24:07;;;;;;;24.52;11.95;;;10.20;92.00;;;;;;4998658;28;20581;-66
2022/03/29 00:26:34;;;;;;;19.40;11.63;;;10.10;92.20;;;;;;4985942;28;20054;-66
2022/03/29 00:29:02;;;;;;;19.10;11.95;;;10.10;92.30;;;;;;5006930;28;20125;-65
2022/03/29 00:31:29;;;;;;;21.02;11.68;;;10.10;92.50;;;;;;5005867;28;20133;-65
2022/03/29 00:33:57;;;;;;;21.55;12.43;;;10.10;92.70;;;;;;4998048;28;20135;-66
2022/03/29 00:36:24;;;;;;;23.45;11.93;;;10.00;92.90;;;;;;5009099;28;20478;-66
2022/03/29 00:38:54;;;;;;;18.08;11.93;;;10.00;93.10;;;;;;5007329;28;20049;-66
2022/03/29 00:41:21;;;;;;;18.70;12.23;;;10.00;93.40;;;;;;4998153;28;20054;-66
2022/03/29 00:43:49;;;;;;;21.35;11.15;;;10.00;93.60;;;;;;4997810;28;20049;-66
2022/03/29 00:46:16;;;;;;;20.35;11.98;;;9.90;93.90;;;;;;4998931;28;20045;-65
2022/03/29 00:48:44;;;;;;;20.55;12.25;;;9.80;94.20;;;;;;4995295;28;20097;-65
2022/03/29 00:51:12;;;;;;;22.27;11.80;;;9.80;94.30;;;;;;5001670;28;20073;-65
2022/03/29 00:53:39;;;;;;;18.20;11.85;;;9.80;94.50;;;;;;5003017;28;20038;-65
2022/03/29 00:56:08;;;;;;;20.90;12.25;;;9.70;94.70;;;;;;5000886;28;20046;-65
2022/03/29 00:58:36;;;;;;;20.48;12.60;;;9.70;94.90;;;;;;4994318;28;20410;-65
2022/03/29 01:01:05;;;;;;;18.88;12.07;;;9.70;95.80;;;;;;4993333;28;20054;-66
2022/03/29 01:03:32;;;;;;;23.50;12.95;;;9.70;95.50;;;;;;4994380;28;20070;-66
2022/03/29 01:06:00;;;;;;;22.52;11.52;;;9.70;95.70;;;;;;4994675;28;20046;-65
2022/03/29 01:08:27;;;;;;;20.75;11.80;;;9.60;95.90;;;;;;4994814;28;20047;-66
2022/03/29 01:10:55;;;;;;;19.23;11.18;;;9.60;96.00;;;;;;4994391;28;20064;-66
2022/03/29 01:13:23;;;;;;;22.73;12.05;;;9.50;96.30;;;;;;4994837;28;20565;-66
2022/03/29 01:15:50;;;;;;;20.25;12.18;;;9.50;96.60;;;;;;5007434;28;20052;-66
2022/03/29 01:18:20;;;;;;;17.92;11.07;;;9.50;96.90;;;;;;4995920;28;20461;-65
2022/03/29 01:20:49;;;;;;;22.27;12.45;;;9.50;97.20;;;;;;5006482;28;20041;-66
2022/03/29 01:23:18;;;;;;;22.65;11.95;;;9.40;97.40;;;;;;4999864;28;20117;-66
2022/03/29 01:25:50;;;;;;;22.45;11.80;;;9.40;97.60;;;;;;4999134;28;20072;-65
2022/03/29 01:28:22;;;;;;;21.92;13.18;;;9.40;97.90;;;;;;4994016;28;20040;-65
2022/03/29 01:30:53;;;;;;;20.02;11.95;;;9.40;98.30;;;;;;4993386;28;20050;-65
2022/03/29 01:33:21;;;;;;;20.23;11.73;;;9.30;98.50;;;;;;4991952;28;20060;-65
2022/03/29 01:35:49;;;;;;;21.02;13.07;;;9.30;98.80;;;;;;4991016;28;20481;-66
2022/03/29 01:38:16;;;;;;;23.75;12.57;;;9.30;99.10;;;;;;4992662;28;20054;-66
2022/03/29 01:40:44;;;;;;;22.13;13.00;;;9.30;99.40;;;;;;4993673;28;20050;-66
2022/03/29 01:43:11;;;;;;;22.98;12.55;;;9.30;99.70;;;;;;5005399;28;20576;-66
2022/03/29 01:45:39;;;;;;;20.25;11.93;;;9.20;99.80;;;;;;4993961;28;20039;-66
2022/03/29 01:48:06;;;;;;;20.48;12.35;;;9.20;99.90;;;;;;4994466;28;20070;-66
2022/03/29 01:50:34;;;;;;;20.70;12.63;;;9.10;99.90;;;;;;4994362;28;20462;-66
2022/03/29 01:53:01;;;;;;;22.75;12.50;;;9.10;99.90;;;;;;5004030;28;20038;-66
2022/03/29 01:55:28;;;;;;;19.52;12.32;;;9.10;99.90;;;;;;4993267;28;20052;-66
2022/03/29 01:57:55;;;;;;;19.27;12.15;;;9.10;99.90;;;;;;4997515;28;20447;-66
2022/03/29 02:00:32;;;;;;;20.83;12.27;;;9.10;99.90;;;;;;5004064;28;20473;-66
2022/03/29 02:03:02;;;;;;;22.38;12.65;;;9.10;99.90;;;;;;4991747;28;20122;-66
2022/03/29 02:05:32;;;;;;;21.98;12.60;;;9.10;99.90;;;;;;4993715;28;20458;-66
2022/03/29 02:08:00;;;;;;;19.90;11.98;;;9.10;99.90;;;;;;4997515;28;20046;-66
2022/03/29 02:10:28;;;;;;;22.88;13.30;;;9.10;99.90;;;;;;5000948;28;20053;-67
2022/03/29 02:12:56;;;;;;;24.40;11.80;;;9.10;99.90;;;;;;4993918;28;20553;-66
2022/03/29 02:15:23;;;;;;;20.48;13.02;;;9.10;99.90;;;;;;4993203;28;20137;-66
2022/03/29 02:17:51;;;;;;;19.90;12.65;;;9.00;99.90;;;;;;4994885;28;20142;-66
2022/03/29 02:20:24;;;;;;;22.70;12.23;;;9.10;99.90;;;;;;4995918;28;20137;-66
2022/03/29 02:22:51;;;;;;;21.50;12.35;;;9.10;99.90;;;;;;5001247;28;20517;-66
2022/03/29 02:25:18;;;;;;;22.83;12.60;;;9.00;99.90;;;;;;4994914;28;20049;-66
2022/03/29 02:27:46;;;;;;;22.92;12.88;;;8.90;99.90;;;;;;5000926;28;20041;-66
2022/03/29 02:30:16;;;;;;;19.13;12.90;;;8.90;99.90;;;;;;4992823;28;20050;-65
2022/03/29 02:32:44;;;;;;;20.58;12.25;;;8.80;99.90;;;;;;4991480;28;20188;-66
2022/03/29 02:35:12;;;;;;;22.63;12.98;;;8.80;99.90;;;;;;4995387;28;20050;-66
2022/03/29 02:37:40;;;;;;;26.23;14.02;;;8.80;99.90;;;;;;4992296;28;20113;-65
2022/03/29 02:40:09;;;;;;;19.40;12.65;;;8.80;99.90;;;;;;5007378;28;20506;-66
2022/03/29 02:42:53;;;;;;;20.90;13.30;;;8.70;99.90;;;;;;4996402;28;20455;-66
2022/03/29 02:45:23;;;;;;;22.02;13.13;;;8.70;99.90;;;;;;5002143;28;20050;-66
2022/03/29 02:47:55;;;;;;;24.75;12.57;;;8.70;99.90;;;;;;5001951;28;20042;-65
2022/03/29 02:50:23;;;;;;;;;;;8.70;99.90;;;;;;4996385;28;20038;-64
2022/03/29 02:52:59;;;;;;;21.20;12.82;;;8.80;99.90;;;;;;4996449;28;20060;-66
2022/03/29 02:55:30;;;;;;;24.73;12.57;;;8.80;99.90;;;;;;5000664;28;20054;-65
2022/03/29 02:57:58;;;;;;;21.90;13.30;;;8.80;99.90;;;;;;4989533;28;20602;-66
2022/03/29 03:00:26;;;;;;;22.00;13.25;;;8.80;99.90;;;;;;4995176;28;20053;-66
2022/03/29 03:02:55;;;;;;;24.92;13.57;;;8.80;99.90;;;;;;4988999;28;20113;-66
2022/03/29 03:05:26;;;;;;;22.88;13.50;;;8.70;99.90;;;;;;4991007;28;20097;-66
2022/03/29 03:07:54;;;;;;;27.15;14.27;;;8.70;99.90;;;;;;5000556;28;20429;-66
2022/03/29 03:10:21;;;;;;;23.77;13.02;;;8.70;99.90;;;;;;4998348;28;20053;-66
2022/03/29 03:12:50;;;;;;;19.70;12.10;;;8.70;99.90;;;;;;5000417;28;20506;-66
2022/03/29 03:15:20;;;;;;;21.98;13.05;;;8.60;99.90;;;;;;4992385;28;20041;-66
2022/03/29 03:17:49;;;;;;;21.58;13.88;;;8.60;99.90;;;;;;4994942;28;20042;-65
2022/03/29 03:20:17;;;;;;;23.90;13.65;;;8.60;99.90;;;;;;4996977;28;20423;-65
2022/03/29 03:22:45;;;;;;;24.92;13.88;;;8.50;99.90;;;;;;4992491;28;20124;-66
2022/03/29 03:25:12;;;;;;;21.70;12.70;;;8.50;99.90;;;;;;4997292;28;20435;-66
2022/03/29 03:27:40;;;;;;;22.65;13.35;;;8.50;99.90;;;;;;4993360;28;20078;-66
2022/03/29 03:30:11;;;;;;;23.95;13.18;;;8.50;99.90;;;;;;4992718;28;20477;-66
2022/03/29 03:32:40;;;;;;;25.33;13.00;;;8.40;99.90;;;;;;5002516;28;20052;-66
2022/03/29 03:35:07;;;;;;;24.92;13.40;;;8.40;99.90;;;;;;5001280;28;20049;-66
2022/03/29 03:37:35;;;;;;;24.67;13.60;;;8.30;99.90;;;;;;4999584;28;20452;-66
2022/03/29 03:40:04;;;;;;;25.33;12.70;;;8.30;99.90;;;;;;4998894;28;20042;-66
2022/03/29 03:42:32;;;;;;;21.73;12.07;;;8.30;99.90;;;;;;4996368;28;20050;-66
2022/03/29 03:45:02;;;;;;;25.83;13.13;;;8.20;99.90;;;;;;4992614;28;20045;-66
2022/03/29 03:47:30;;;;;;;24.42;14.05;;;8.20;99.90;;;;;;4991158;28;20528;-66
2022/03/29 03:49:57;;;;;;;21.83;12.48;;;8.20;99.90;;;;;;4990396;28;20728;-66
2022/03/29 03:52:25;;;;;;;21.88;12.48;;;8.10;99.90;;;;;;4991358;28;20509;-66
2022/03/29 03:54:55;;;;;;;20.15;13.10;;;8.10;99.90;;;;;;4997443;28;20052;-66
2022/03/29 03:57:23;;;;;;;23.00;12.75;;;8.10;99.90;;;;;;4991080;28;20053;-65
2022/03/29 03:59:52;;;;;;;21.90;12.77;;;8.10;99.90;;;;;;4992444;28;20042;-66
2022/03/29 04:02:19;;;;;;;22.23;13.13;;;8.10;99.90;;;;;;4999713;28;20104;-67
2022/03/29 04:04:47;;;;;;;23.02;13.45;;;8.10;99.90;;;;;;4993142;28;20456;-66
2022/03/29 04:07:14;;;;;;;21.98;13.30;;;8.00;99.90;;;;;;4991231;28;20409;-66
2022/03/29 04:09:42;;;;;;;25.75;13.30;;;8.00;99.90;;;;;;5002871;28;20042;-66
2022/03/29 04:12:10;;;;;;;22.55;12.95;;;8.00;99.90;;;;;;4992984;28;20056;-66
2022/03/29 04:14:37;;;;;;;24.88;13.23;;;8.00;99.90;;;;;;4991910;28;20054;-66
2022/03/29 04:17:05;;;;;;;32.83;20.13;;;8.00;99.90;;;;;;4990786;28;20054;-66
2022/03/29 04:19:33;;;;;;;23.75;15.40;;;7.90;99.90;;;;;;4994822;28;20050;-66
2022/03/29 04:22:00;;;;;;;24.88;15.45;;;7.90;99.90;;;;;;4990099;28;20073;-65
2022/03/29 04:24:28;;;;;;;27.17;15.15;;;7.90;99.90;;;;;;4990135;28;20046;-66
2022/03/29 04:26:55;;;;;;;27.45;15.80;;;7.80;99.90;;;;;;4990932;28;20480;-65
2022/03/29 04:29:22;;;;;;;29.65;16.75;;;7.80;99.90;;;;;;4990237;28;20046;-66
2022/03/29 04:31:52;;;;;;;27.38;15.02;;;7.80;99.90;;;;;;4991697;28;20817;-66
2022/03/29 04:34:19;;;;;;;25.85;14.38;;;7.70;99.90;;;;;;4990598;28;20599;-65
2022/03/29 04:36:46;;;;;;;27.05;14.38;;;7.70;99.90;;;;;;4992461;28;20038;-65
2022/03/29 04:39:14;;;;;;;26.92;15.32;;;7.70;99.90;;;;;;4998280;28;20140;-66
2022/03/29 04:41:41;;;;;;;25.08;14.63;;;7.70;99.90;;;;;;4993766;28;20050;-66
2022/03/29 04:44:28;;;;;;;20.80;13.75;;;7.70;99.90;;;;;;4997330;28;20033;-66
2022/03/29 04:46:56;;;;;;;22.77;13.80;;;7.70;99.90;;;;;;5005736;28;20058;-66
2022/03/29 04:49:23;;;;;;;24.92;13.82;;;7.70;99.90;;;;;;4994126;28;20073;-66
2022/03/29 04:51:50;;;;;;;23.95;14.60;;;7.70;99.90;;;;;;4999846;28;20053;-66
2022/03/29 04:54:18;;;;;;;25.92;14.55;;;7.80;99.90;;;;;;4990502;28;20122;-65
2022/03/29 04:56:45;;;;;;;25.45;14.90;;;7.70;99.90;;;;;;4991906;28;20073;-66
2022/03/29 04:59:14;;;;;;;27.42;14.70;;;7.70;99.90;;;;;;4990528;28;20046;-66
2022/03/29 05:01:41;;;;;;;27.88;14.90;;;7.70;99.90;;;;;;5005497;28;20529;-66
2022/03/29 05:04:09;;;;;;;27.75;16.08;;;7.70;99.90;;;;;;4996377;28;20043;-66
2022/03/29 05:06:36;;;;;;;24.15;15.63;;;7.70;99.90;;;;;;5001553;28;20042;-66
2022/03/29 05:09:04;;;;;;;28.38;14.77;;;7.60;99.90;;;;;;5001427;28;20072;-65
2022/03/29 05:11:31;;;;;;;26.38;14.60;;;7.60;99.90;;;;;;4990260;28;20130;-66
2022/03/29 05:13:58;;;;;;;25.52;15.02;;;7.60;99.90;;;;;;4989766;28;20069;-65
2022/03/29 05:16:26;;;;;;;21.98;14.27;;;7.60;99.90;;;;;;4988677;28;20428;-66
2022/03/29 05:18:53;;;;;;;28.38;14.63;;;7.60;99.90;;;;;;5002693;28;20116;-66
2022/03/29 05:21:21;;;;;;;24.50;14.85;;;7.70;99.90;;;;;;4992802;28;20057;-66
2022/03/29 05:23:48;;;;;;;24.98;14.77;;;7.70;99.90;;;;;;5004512;28;20063;-66
2022/03/29 05:26:15;;;;;;;30.15;15.23;;;7.70;99.90;;;;;;5001738;28;20044;-66
2022/03/29 05:28:43;;;;;;;27.08;14.15;;;7.80;99.90;;;;;;4999538;28;20054;-66
2022/03/29 05:31:10;;;;;;;31.55;15.07;;;7.80;99.90;;;;;;4997675;28;20062;-66
2022/03/29 05:33:37;;;;;;;28.13;14.65;;;7.90;99.90;;;;;;4996947;28;20438;-67
2022/03/29 05:36:05;;;;;;;25.40;13.73;;;7.90;99.90;;;;;;5000774;28;20053;-66
2022/03/29 05:38:32;;;;;;;24.98;14.35;;;8.00;99.90;;;;;;4994960;28;20065;-66
2022/03/29 05:40:59;;;;;;;24.88;13.95;;;8.00;99.90;;;;;;4995735;28;20129;-66
2022/03/29 05:43:27;;;;;;;28.05;14.50;;;8.10;99.90;;;;;;4996187;28;20038;-66
2022/03/29 05:51:39;;;;;;;27.08;14.75;;;8.30;99.90;;;;;;5013636;28;20060;-67
2022/03/29 05:54:07;;;;;;;24.58;14.07;;;8.40;99.90;;;;;;5006723;28;20106;-67
2022/03/29 05:56:34;;;;;;;27.27;15.25;;;8.50;99.90;;;;;;4997082;28;20136;-66
2022/03/29 05:59:01;;;;;;;23.75;14.18;;;8.60;99.90;;;;;;4997807;28;20120;-66
2022/03/29 06:01:29;;;;;;;25.60;13.50;;;8.60;99.90;;;;;;5000399;28;20524;-66
2022/03/29 06:03:57;;;;;;;25.20;14.00;;;8.70;99.90;;;;;;4997254;28;20473;-66
2022/03/29 06:06:24;;;;;;;27.95;14.15;;;8.80;99.90;;;;;;4998587;28;20047;-66
2022/03/29 06:08:51;;;;;;;27.67;15.00;;;8.90;99.90;;;;;;4995988;28;20540;-66
2022/03/29 06:11:19;;;;;;;26.13;14.88;;;9.10;99.90;;;;;;4997371;28;20053;-65
2022/03/29 06:13:47;;;;;;;24.77;14.18;;;9.20;99.90;;;;;;4996530;28;20121;-65
2022/03/29 06:16:14;;;;;;;28.30;13.82;;;9.30;99.90;;;;;;5001680;28;20042;-67
2022/03/29 06:18:42;;;;;;;26.10;14.23;;;9.50;99.90;;;;;;4993873;28;20042;-66
2022/03/29 06:21:09;;;;;;;25.10;13.88;;;9.60;99.90;;;;;;4995682;28;20064;-67
2022/03/29 06:23:37;;;;;;;26.20;15.60;;;9.80;99.90;;;;;;4994734;28;20057;-66
2022/03/29 06:26:04;;;;;;;26.42;14.50;;;9.90;99.90;;;;;;4994691;28;20499;-66
2022/03/29 06:28:32;;;;;;;26.80;14.93;;;10.00;99.90;;;;;;5001451;28;20129;-66
2022/03/29 06:30:59;;;;;;;27.48;15.10;;;10.10;99.90;;;;;;4991695;28;20447;-66
2022/03/29 06:33:26;;;;;;;31.65;15.32;;;10.30;99.90;;;;;;4991824;28;20049;-65
2022/03/29 06:35:54;;;;;;;27.52;14.93;;;10.40;99.90;;;;;;4991881;28;20552;-66
2022/03/29 06:38:22;;;;;;;28.05;15.18;;;10.60;99.90;;;;;;4994242;28;20477;-66
2022/03/29 06:40:49;;;;;;;27.52;14.85;;;10.70;99.90;;;;;;4987424;28;20366;-66
2022/03/29 06:43:16;;;;;;;23.52;13.80;;;10.80;99.90;;;;;;4995346;28;20038;-65
2022/03/29 06:45:44;;;;;;;25.85;14.57;;;10.90;99.90;;;;;;4996569;28;20046;-67
2022/03/29 06:48:12;;;;;;;27.52;15.65;;;11.00;99.90;;;;;;5000374;28;20074;-66
2022/03/29 06:50:39;;;;;;;25.38;14.75;;;11.20;99.90;;;;;;4999745;28;20041;-67
2022/03/29 06:53:06;;;;;;;31.92;15.75;;;11.20;99.90;;;;;;4995858;28;20092;-66
2022/03/29 06:55:35;;;;;;;27.55;15.50;;;11.30;99.90;;;;;;4998520;28;20065;-66
2022/03/29 06:58:04;;;;;;;33.72;16.52;;;11.40;99.90;;;;;;4993132;28;20050;-67
2022/03/29 07:00:31;;;;;;;30.13;15.93;;;11.50;99.90;;;;;;4992308;28;20061;-67
2022/03/29 07:02:58;;;;;;;26.73;15.32;;;11.50;99.90;;;;;;4991030;28;20080;-67
2022/03/29 07:05:26;;;;;;;31.90;16.38;;;11.60;99.90;;;;;;4991711;28;20057;-67
2022/03/29 07:07:53;;;;;;;26.30;15.13;;;11.70;99.90;;;;;;4992052;28;20470;-66
2022/03/29 07:13:07;;;;;;;27.52;15.93;;;11.80;99.90;;;;;;4992125;28;20589;-66
2022/03/29 07:15:34;;;;;;;35.65;16.90;;;11.80;99.90;;;;;;4991009;28;20108;-67
2022/03/29 07:18:02;;;;;;;30.20;16.90;;;11.90;99.90;;;;;;4989656;28;20081;-67
2022/03/29 07:20:29;;;;;;;34.35;17.73;;;12.00;99.90;;;;;;4992216;28;20074;-67
2022/03/29 07:22:57;;;;;;;33.63;16.77;;;12.10;99.90;;;;;;4990182;28;20039;-67
2022/03/29 07:25:27;;;;;;;37.30;17.42;;;12.20;99.90;;;;;;4992636;28;20046;-68
2022/03/29 07:27:54;;;;;;;39.55;18.85;;;12.20;99.90;;;;;;4993638;28;20053;-67
2022/03/29 07:30:23;;;;;;;34.90;19.50;;;12.20;99.90;;;;;;4993909;28;20043;-67
2022/03/29 07:32:52;;;;;;;35.00;18.05;;;12.30;99.90;;;;;;4993363;28;20052;-67
2022/03/29 07:35:22;;;;;;;30.13;18.60;;;12.30;99.90;;;;;;4995881;28;20050;-67
2022/03/29 07:37:49;;;;;;;42.17;18.90;;;12.30;99.90;;;;;;4995901;28;20046;-67
2022/03/29 07:40:21;;;;;;;36.38;17.27;;;12.30;99.90;;;;;;4994716;28;20050;-67
2022/03/29 07:42:51;;;;;;;40.55;17.90;;;12.30;99.90;;;;;;4991936;28;20625;-67
2022/03/29 07:45:19;;;;;;;42.90;19.38;;;12.40;99.90;;;;;;4997466;28;20045;-67
2022/03/29 07:47:49;;;;;;;35.20;18.73;;;12.50;99.90;;;;;;4994604;28;20073;-67
2022/03/29 07:50:36;;;;;;;33.50;17.63;;;12.70;99.90;;;;;;4991875;28;20046;-67
2022/03/29 07:53:05;;;;;;;45.75;19.38;;;12.80;99.90;;;;;;4993021;28;20093;-67
2022/03/29 07:55:33;;;;;;;34.67;18.85;;;13.00;99.90;;;;;;4992691;28;20046;-67
2022/03/29 07:58:09;;;;;;;37.70;17.58;;;13.10;99.90;;;;;;4994838;28;20517;-67
2022/03/29 08:00:37;;;;;;;30.10;17.63;;;13.20;99.90;;;;;;4993440;28;20069;-67
2022/03/29 08:03:13;;;;;;;27.80;15.93;;;13.30;99.90;;;;;;4992843;28;20058;-67
2022/03/29 08:05:42;;;;;;;33.10;17.60;;;13.40;99.90;;;;;;4990506;28;20383;-66
2022/03/29 08:08:11;;;;;;;31.48;18.15;;;13.40;99.90;;;;;;4992706;28;20072;-67
2022/03/29 08:10:39;;;;;;;31.50;17.10;;;13.20;99.90;;;;;;4989760;28;20168;-67
2022/03/29 08:13:08;;;;;;;30.15;17.08;;;13.20;99.90;;;;;;4989331;28;20046;-68
2022/03/29 08:15:36;;;;;;;30.92;17.98;;;13.10;99.90;;;;;;4989302;28;20529;-68
2022/03/29 08:18:06;;;;;;;35.50;18.58;;;13.10;99.90;;;;;;4990814;28;20093;-66
2022/03/29 08:20:35;;;;;;;32.20;18.00;;;13.20;99.90;;;;;;4987490;28;20555;-67
2022/03/29 08:23:03;;;;;;;40.70;18.60;;;13.00;99.90;;;;;;4990305;28;20118;-66
2022/03/29 08:25:32;;;;;;;32.58;17.88;;;13.00;99.90;;;;;;4996018;28;20038;-67
2022/03/29 08:28:01;;;;;;;33.83;18.77;;;13.00;99.90;;;;;;4993016;28;20051;-67
2022/03/29 08:30:29;;;;;;;34.25;17.45;;;13.00;99.90;;;;;;4994776;28;20510;-67
2022/03/29 08:32:59;;;;;;;35.78;18.95;;;13.10;99.90;;;;;;4994598;28;20046;-67
2022/03/29 08:35:33;;;;;;;30.17;18.40;;;13.00;99.90;;;;;;5000157;28;20144;-68
2022/03/29 08:38:01;;;;;;;37.60;19.20;;;13.00;99.90;;;;;;4992383;28;20103;-67
2022/03/29 08:40:49;;;;;;;41.03;18.60;;;13.10;99.90;;;;;;5004519;28;20049;-67
2022/03/29 08:43:17;;;;;;;29.23;17.05;;;13.10;99.90;;;;;;4993256;28;21502;-67
2022/03/29 08:45:48;;;;;;;34.90;18.10;;;13.30;99.90;;;;;;4988505;28;20043;-65
2022/03/29 08:48:17;;;;;;;29.58;17.52;;;13.50;99.90;;;;;;5003850;28;20073;-67
2022/03/29 08:50:45;;;;;;;29.25;17.75;;;13.60;99.90;;;;;;4993535;28;20096;-68
2022/03/29 08:53:17;;;;;;;26.83;16.48;;;13.80;99.90;;;;;;4992366;28;20053;-66
2022/03/29 08:55:45;;;;;;;29.25;16.42;;;14.00;99.90;;;;;;4993418;28;20391;-67
2022/03/29 08:58:13;;;;;;;27.35;17.17;;;14.20;99.90;;;;;;4991685;28;20092;-67
2022/03/29 09:00:48;;;;;;;31.27;16.80;;;14.30;99.90;;;;;;5004525;28;20054;-67
2022/03/29 09:03:17;;;;;;;27.90;16.10;;;14.30;99.90;;;;;;4993584;28;20417;-67
2022/03/29 09:05:48;;;;;;;26.67;15.52;;;14.30;99.90;;;;;;4991922;28;20073;-67
2022/03/29 09:08:16;;;;;;;26.80;16.35;;;14.50;99.90;;;;;;4993860;28;20061;-67
2022/03/29 09:10:48;;;;;;;31.80;17.88;;;14.40;99.90;;;;;;4991096;28;20053;-65
2022/03/29 09:13:29;;;;;;;32.22;16.77;;;14.30;99.90;;;;;;4990987;28;20052;-66
2022/03/29 09:15:58;;;;;;;32.80;17.25;;;14.20;99.90;;;;;;4995124;28;20076;-67
2022/03/29 09:18:27;;;;;;;28.90;15.95;;;14.30;99.90;;;;;;5000683;28;20524;-66
2022/03/29 09:21:15;;;;;;;32.42;16.58;;;14.50;99.90;;;;;;4993250;28;20077;-66
2022/03/29 09:23:44;;;;;;;27.75;15.73;;;14.70;99.90;;;;;;5004819;28;20109;-66
2022/03/29 09:26:28;;;;;;;30.60;16.45;;;14.90;99.90;;;;;;4993400;28;20453;-66
2022/03/29 09:28:55;;;;;;;34.30;16.83;;;14.70;99.90;;;;;;4999753;28;20055;-66
2022/03/29 09:31:24;;;;;;;31.25;17.75;;;14.70;99.90;;;;;;4991768;28;20039;-66
2022/03/29 09:34:10;;;;;;;29.52;17.42;;;14.60;99.90;;;;;;4991571;28;20183;-67
2022/03/29 09:36:44;;;;;;;33.90;17.80;;;14.90;99.90;;;;;;4992349;28;20492;-66
2022/03/29 09:39:32;;;;;;;25.58;17.17;;;15.10;99.90;;;;;;4992573;28;20046;-66
2022/03/29 09:42:00;;;;;;;29.00;16.45;;;15.20;99.90;;;;;;4991903;28;20138;-66
2022/03/29 09:44:41;;;;;;;27.73;17.23;;;15.40;99.90;;;;;;4976694;28;20105;-67
2022/03/29 09:47:12;;;;;;;35.17;18.05;;;15.40;99.90;;;;;;4991975;28;20050;-66
2022/03/29 09:50:02;;;;;;;30.65;17.98;;;15.60;99.90;;;;;;4989908;28;20045;-66
2022/03/29 09:52:32;;;;;;;33.38;18.50;;;15.60;99.90;;;;;;4993188;28;20035;-66
2022/03/29 09:55:17;;;;;;;31.42;17.05;;;15.70;99.90;;;;;;5006963;28;20034;-67
2022/03/29 09:57:51;;;;;;;32.03;18.98;;;15.70;99.90;;;;;;5000250;28;20042;-67
2022/03/29 10:00:24;;;;;;;32.67;17.60;;;15.70;99.90;;;;;;4992396;28;20363;-68
2022/03/29 10:02:52;;;;;;;28.38;17.17;;;15.90;99.90;;;;;;5004537;28;20090;-67
2022/03/29 10:05:19;;;;;;;28.33;17.40;;;16.10;99.90;;;;;;4991085;28;20069;-66
2022/03/29 10:10:49;;;;;;;30.77;17.98;;;16.30;99.90;;;;;;5007942;28;20599;-68
2022/03/29 10:13:23;;;;;;;30.02;18.52;;;16.60;99.90;;;;;;5011227;28;20045;-66
2022/03/29 10:15:53;;;;;;;34.53;18.77;;;16.90;99.90;;;;;;5008405;28;20066;-66
2022/03/29 10:18:25;;;;;;;30.67;16.60;;;16.90;99.90;;;;;;4993742;28;20081;-66
2022/03/29 10:20:54;;;;;;;31.08;17.63;;;17.10;99.90;;;;;;4991934;28;20054;-67
2022/03/29 10:23:24;;;;;;;29.00;17.42;;;17.20;99.90;;;;;;5000217;28;20058;-66
2022/03/29 10:25:53;;;;;;;29.13;17.58;;;17.30;99.90;;;;;;4993082;28;20053;-66
2022/03/29 10:28:28;;;;;;;29.45;16.48;;;17.30;99.90;;;;;;4997824;28;20073;-66
2022/03/29 10:30:56;;;;;;;28.70;17.73;;;17.20;99.90;;;;;;4993246;28;20046;-66
2022/03/29 10:33:30;;;;;;;32.63;18.30;;;17.30;99.90;;;;;;4991464;28;20050;-67
2022/03/29 10:36:05;;;;;;;28.33;17.40;;;17.40;99.90;;;;;;4993293;28;20421;-65
2022/03/29 10:38:44;;;;;;;26.50;17.20;;;17.60;99.90;;;;;;4995871;28;20141;-66
2022/03/29 10:41:30;;;;;;;24.35;16.92;;;17.80;99.90;;;;;;4993002;28;20073;-66
2022/03/29 10:44:14;;;;;;;28.02;16.95;;;18.10;99.90;;;;;;4992710;28;20064;-66
2022/03/29 10:46:46;;;;;;;28.52;17.05;;;18.40;99.90;;;;;;4990445;28;20477;-66
2022/03/29 10:49:22;;;;;;;26.20;16.00;;;18.60;99.90;;;;;;4989386;28;20576;-67
2022/03/29 10:52:16;;;;;;;28.27;16.85;;;18.80;99.90;;;;;;4992536;28;20100;-67
2022/03/29 10:54:44;;;;;;;29.17;17.40;;;19.10;99.90;;;;;;5001839;28;20072;-67
2022/03/29 10:57:24;;;;;;;27.48;17.38;;;19.40;99.90;;;;;;4997991;28;20499;-66
2022/03/29 11:00:17;;;;;;;33.20;17.08;;;19.60;99.40;;;;;;4992784;28;20038;-66
2022/03/29 11:03:15;;;;;;;34.88;18.30;;;20.10;98.40;;;;;;4996060;28;20042;-65
2022/03/29 11:06:10;;;;;;;29.38;18.20;;;20.50;96.80;;;;;;4999194;28;20042;-67
2022/03/29 11:08:46;;;;;;;29.38;17.73;;;20.50;96.20;;;;;;4995913;28;20053;-65
2022/03/29 11:11:37;;;;;;;26.08;17.92;;;20.50;95.70;;;;;;4994307;28;20048;-67
2022/03/29 11:14:30;;;;;;;28.95;17.90;;;20.50;95.50;;;;;;4990557;28;20517;-66
2022/03/29 11:17:09;;;;;;;29.77;17.58;;;20.90;94.60;;;;;;4994071;28;20050;-66
2022/03/29 11:19:48;;;;;;;36.63;19.73;;;21.30;94.00;;;;;;4997131;28;20117;-66
2022/03/29 11:22:44;;;;;;;29.85;18.13;;;21.50;93.10;;;;;;5003142;28;20540;-65
2022/03/29 11:25:15;;;;;;;35.95;20.42;;;21.70;92.30;;;;;;4998394;28;20134;-66
2022/03/29 11:27:43;;;;;;;33.30;20.75;;;21.90;91.30;;;;;;4991006;28;20034;-66
2022/03/29 11:30:12;;;;;;;34.97;21.15;;;21.30;91.90;;;;;;4994240;28;20039;-66
2022/03/29 11:32:41;;;;;;;39.30;21.27;;;21.20;91.60;;;;;;4990995;28;20053;-66
2022/03/29 11:35:11;;;;;;;34.83;21.60;;;21.30;91.60;;;;;;4993643;28;20501;-66
2022/03/29 11:37:43;;;;;;;35.95;21.05;;;21.60;91.40;;;;;;4992179;28;20476;-66
2022/03/29 11:40:20;;;;;;;36.17;20.13;;;21.80;91.10;;;;;;4985169;28;20414;-66
2022/03/29 11:42:59;;;;;;;34.17;20.10;;;21.90;91.10;;;;;;4996231;28;20052;-66
2022/03/29 11:45:29;;;;;;;37.58;21.48;;;22.10;90.10;;;;;;5001269;28;20049;-65
2022/03/29 11:48:02;;;;;;;33.50;20.65;;;22.30;90.00;;;;;;4994187;28;20157;-65
2022/03/29 11:50:40;;;;;;;35.42;21.25;;;22.50;89.20;;;;;;4990039;28;20493;-67
2022/03/29 11:53:30;;;;;;;43.28;23.70;;;22.50;88.20;;;;;;4989324;28;20050;-65
2022/03/29 11:56:05;;;;;;;34.75;22.48;;;22.50;87.60;;;;;;5003979;28;20469;-67
2022/03/29 11:58:39;;;;;;;33.60;21.30;;;22.30;88.20;;;;;;4996941;28;20556;-65
2022/03/29 12:01:13;;;;;;;33.40;22.10;;;22.40;88.10;;;;;;4994851;28;20045;-65
2022/03/29 12:03:42;;;;;;;33.72;20.85;;;22.60;86.50;;;;;;4998066;28;20050;-66
2022/03/29 12:06:18;;;;;;;41.42;23.38;;;22.90;86.50;;;;;;4993055;28;20058;-65
2022/03/29 12:08:59;;;;;;;34.70;21.52;;;23.10;85.20;;;;;;4993286;28;20390;-66
2022/03/29 12:11:28;;;;;;;36.58;21.70;;;22.90;85.80;;;;;;4993509;28;20062;-64
2022/03/29 12:14:13;;;;;;;35.70;22.67;;;23.20;85.30;;;;;;4993642;28;20125;-65
2022/03/29 12:16:45;;;;;;;34.60;20.98;;;22.90;85.50;;;;;;4990559;28;20525;-66
2022/03/29 12:19:25;;;;;;;37.53;23.15;;;22.80;85.70;;;;;;4994526;28;20456;-66
2022/03/29 12:21:56;;;;;;;41.67;21.73;;;22.50;86.00;;;;;;4993157;28;20077;-65
2022/03/29 12:24:37;;;;;;;31.70;21.20;;;22.90;85.80;;;;;;5003826;28;20043;-67
2022/03/29 12:27:12;;;;;;;34.45;22.58;;;22.80;85.40;;;;;;4990936;28;20034;-66
2022/03/29 12:29:43;;;;;;;32.92;21.30;;;22.60;85.30;;;;;;4990632;28;20380;-67
2022/03/29 12:32:11;;;;;;;31.42;18.98;;;22.70;85.90;;;;;;4993746;28;20045;-66
2022/03/29 12:34:53;;;;;;;32.60;21.00;;;23.10;85.60;;;;;;4992246;28;20042;-67
2022/03/29 12:37:22;;;;;;;29.58;21.25;;;23.20;84.60;;;;;;4994136;28;20049;-67
2022/03/29 12:40:04;;;;;;;37.60;22.38;;;23.10;84.30;;;;;;4996759;28;20042;-66
2022/03/29 12:42:34;;;;;;;32.35;22.50;;;22.80;84.70;;;;;;4999384;28;20413;-65
2022/03/29 12:45:10;;;;;;;32.47;20.88;;;22.80;84.00;;;;;;4995730;28;20101;-67
2022/03/29 12:47:43;;;;;;;30.60;20.50;;;22.80;84.50;;;;;;4999215;28;20042;-65
2022/03/29 12:50:16;;;;;;;33.38;22.10;;;23.10;83.90;;;;;;4995109;28;20050;-67
2022/03/29 12:52:48;;;;;;;36.55;22.58;;;23.50;83.20;;;;;;4996751;28;20160;-67
2022/03/29 12:55:20;;;;;;;38.92;23.58;;;23.40;83.20;;;;;;5001583;28;20186;-66
2022/03/29 12:58:03;;;;;;;36.10;23.17;;;23.40;83.30;;;;;;5000356;28;20046;-66
2022/03/29 13:00:39;;;;;;;32.63;22.42;;;23.70;82.70;;;;;;4995625;28;20045;-66